createdAt,value
2023-02-20T00:00:23.197Z,8.64
2023-02-20T00:00:54.238Z,10.07
2023-02-20T00:01:24.100Z,8.64
2023-02-20T00:01:55.467Z,9.72
2023-02-20T00:02:26.040Z,5.40
2023-02-20T00:02:56.984Z,6.11
2023-02-20T00:03:27.706Z,5.40
2023-02-20T00:03:58.637Z,3.60
2023-02-20T00:04:30.041Z,4.31
2023-02-20T00:05:01.218Z,5.40
2023-02-20T00:05:31.705Z,2.15
2023-02-20T00:06:02.898Z,8.64
2023-02-20T00:06:34.147Z,6.48
2023-02-20T00:07:04.952Z,6.48
2023-02-20T00:07:35.778Z,5.03
2023-02-20T00:08:07.062Z,4.68
2023-02-20T00:08:38.073Z,2.88
2023-02-20T00:09:08.832Z,6.48
2023-02-20T00:09:39.821Z,5.03
2023-02-20T00:10:11.147Z,3.95
2023-02-20T00:10:42.045Z,3.60
2023-02-20T00:11:13.022Z,5.40
2023-02-20T00:11:43.898Z,4.31
2023-02-20T00:12:14.902Z,5.40
2023-02-20T00:12:45.672Z,6.48
2023-02-20T00:13:16.896Z,4.68
2023-02-20T00:13:47.778Z,7.56
2023-02-20T00:14:19.031Z,6.11
2023-02-20T00:14:50.053Z,7.91
2023-02-20T00:15:22.024Z,7.91
2023-02-20T00:15:52.349Z,4.68
2023-02-20T00:16:23.097Z,6.48
2023-02-20T00:16:53.944Z,4.68
2023-02-20T00:17:25.119Z,7.19
2023-02-20T00:17:56.021Z,6.11
2023-02-20T00:18:26.718Z,6.48
2023-02-20T00:18:58.037Z,7.91
2023-02-20T00:19:28.756Z,7.91
2023-02-20T00:19:59.730Z,4.31
2023-02-20T00:20:31.436Z,5.40
2023-02-20T00:21:01.808Z,5.76
2023-02-20T00:21:32.815Z,2.52
2023-02-20T00:22:03.731Z,6.48
2023-02-20T00:22:35.506Z,5.40
2023-02-20T00:23:06.123Z,5.76
2023-02-20T00:23:37.070Z,4.68
2023-02-20T00:24:08.361Z,5.40
2023-02-20T00:24:38.708Z,8.99
2023-02-20T00:25:10.117Z,7.19
2023-02-20T00:25:40.821Z,9.72
2023-02-20T00:26:12.248Z,9.36
2023-02-20T00:26:42.815Z,8.64
2023-02-20T00:27:14.068Z,8.64
2023-02-20T00:27:44.907Z,8.27
2023-02-20T00:28:16.106Z,8.64
2023-02-20T00:28:47.100Z,8.64
2023-02-20T00:29:17.708Z,7.19
2023-02-20T00:29:49.145Z,6.11
2023-02-20T00:30:21.196Z,4.31
2023-02-20T00:30:51.187Z,6.11
2023-02-20T00:31:23.727Z,3.95
2023-02-20T00:31:53.322Z,6.83
2023-02-20T00:32:24.901Z,6.48
2023-02-20T00:32:55.384Z,8.27
2023-02-20T00:33:26.268Z,4.68
2023-02-20T00:33:56.939Z,8.64
2023-02-20T00:34:27.873Z,9.36
2023-02-20T00:34:58.965Z,9.36
2023-02-20T00:35:30.715Z,9.72
2023-02-20T00:36:00.751Z,10.07
2023-02-20T00:36:31.747Z,7.91
2023-02-20T00:37:02.861Z,7.19
2023-02-20T00:37:33.810Z,9.72
2023-02-20T00:38:05.377Z,7.91
2023-02-20T00:38:36.186Z,8.64
2023-02-20T00:39:06.807Z,9.36
2023-02-20T00:39:38.129Z,3.60
2023-02-20T00:40:09.075Z,5.76
2023-02-20T00:40:39.767Z,7.91
2023-02-20T00:41:10.927Z,11.15
2023-02-20T00:41:41.866Z,9.72
2023-02-20T00:42:12.784Z,8.99
2023-02-20T00:42:43.933Z,7.19
2023-02-20T00:43:15.276Z,5.40
2023-02-20T00:43:45.888Z,8.64
2023-02-20T00:44:16.949Z,12.60
2023-02-20T00:44:47.839Z,9.36
2023-02-20T00:45:19.948Z,8.64
2023-02-20T00:45:50.223Z,7.91
2023-02-20T00:46:21.163Z,8.27
2023-02-20T00:46:52.077Z,6.48
2023-02-20T00:47:22.797Z,6.11
2023-02-20T00:47:54.018Z,6.48
2023-02-20T00:48:25.015Z,8.27
2023-02-20T00:48:56.103Z,9.72
2023-02-20T00:49:26.833Z,11.15
2023-02-20T00:49:58.307Z,9.72
2023-02-20T00:50:29.966Z,8.64
2023-02-20T00:51:00.138Z,11.15
2023-02-20T00:51:31.171Z,6.83
2023-02-20T00:52:02.183Z,5.76
2023-02-20T00:52:33.121Z,7.91
2023-02-20T00:53:04.175Z,6.48
2023-02-20T00:53:34.847Z,6.48
2023-02-20T00:54:05.852Z,12.24
2023-02-20T00:54:36.841Z,12.95
2023-02-20T00:55:08.435Z,11.52
2023-02-20T00:55:38.868Z,9.72
2023-02-20T00:56:10.409Z,9.36
2023-02-20T00:56:41.113Z,7.19
2023-02-20T00:57:11.865Z,7.56
2023-02-20T00:57:43.215Z,7.91
2023-02-20T00:58:14.160Z,7.56
2023-02-20T00:58:45.088Z,9.72
2023-02-20T00:59:16.186Z,9.72
2023-02-20T00:59:47.262Z,7.19
2023-02-20T01:00:19.594Z,4.68
2023-02-20T01:00:48.858Z,6.11
2023-02-20T01:01:19.896Z,9.36
2023-02-20T01:01:50.906Z,5.40
2023-02-20T01:02:22.206Z,6.48
2023-02-20T01:02:54.501Z,10.44
2023-02-20T01:03:24.178Z,7.91
2023-02-20T01:03:55.152Z,10.44
2023-02-20T01:04:26.172Z,6.11
2023-02-20T01:04:56.877Z,4.68
2023-02-20T01:05:28.721Z,6.11
2023-02-20T01:05:58.895Z,3.95
2023-02-20T01:06:30.098Z,8.64
2023-02-20T01:07:00.877Z,5.76
2023-02-20T01:07:32.146Z,7.91
2023-02-20T01:08:03.058Z,6.48
2023-02-20T01:08:33.916Z,6.83
2023-02-20T01:09:04.856Z,3.95
2023-02-20T01:09:36.025Z,9.36
2023-02-20T01:10:07.442Z,6.48
2023-02-20T01:10:38.260Z,8.64
2023-02-20T01:11:09.190Z,5.40
2023-02-20T01:11:40.251Z,8.64
2023-02-20T01:12:10.978Z,6.83
2023-02-20T01:12:42.066Z,5.40
2023-02-20T01:13:12.830Z,7.91
2023-02-20T01:13:44.264Z,5.76
2023-02-20T01:14:14.876Z,6.48
2023-02-20T01:14:45.918Z,5.03
2023-02-20T01:15:18.645Z,9.72
2023-02-20T01:15:48.452Z,7.91
2023-02-20T01:16:19.014Z,7.19
2023-02-20T01:16:50.130Z,7.91
2023-02-20T01:17:20.836Z,5.76
2023-02-20T01:17:51.977Z,6.48
2023-02-20T01:18:22.861Z,6.48
2023-02-20T01:18:53.860Z,9.36
2023-02-20T01:19:25.143Z,7.91
2023-02-20T01:19:56.103Z,4.68
2023-02-20T01:20:27.514Z,8.27
2023-02-20T01:20:58.869Z,7.91
2023-02-20T01:21:29.167Z,6.11
2023-02-20T01:21:59.972Z,6.11
2023-02-20T01:22:30.817Z,6.11
2023-02-20T01:23:01.890Z,5.03
2023-02-20T01:23:33.009Z,9.36
2023-02-20T01:24:04.262Z,10.44
2023-02-20T01:24:34.931Z,5.40
2023-02-20T01:25:06.212Z,5.40
2023-02-20T01:25:36.884Z,6.48
2023-02-20T01:26:08.184Z,6.83
2023-02-20T01:26:38.919Z,6.48
2023-02-20T01:27:09.974Z,6.48
2023-02-20T01:27:41.162Z,7.91
2023-02-20T01:28:12.319Z,5.76
2023-02-20T01:28:43.220Z,9.72
2023-02-20T01:29:14.134Z,4.68
2023-02-20T01:29:44.905Z,6.83
2023-02-20T01:30:17.264Z,4.68
2023-02-20T01:30:46.967Z,5.76
2023-02-20T01:31:18.222Z,6.11
2023-02-20T01:31:49.127Z,5.40
2023-02-20T01:32:20.371Z,2.88
2023-02-20T01:32:50.899Z,6.83
2023-02-20T01:33:22.615Z,5.03
2023-02-20T01:33:53.142Z,4.68
2023-02-20T01:34:25.435Z,6.48
2023-02-20T01:34:55.208Z,4.68
2023-02-20T01:35:27.785Z,7.56
2023-02-20T01:35:56.904Z,5.40
2023-02-20T01:36:28.355Z,8.64
2023-02-20T01:36:58.930Z,8.64
2023-02-20T01:37:29.960Z,6.48
2023-02-20T01:38:01.078Z,6.83
2023-02-20T01:38:32.216Z,5.76
2023-02-20T01:39:03.021Z,2.15
2023-02-20T01:39:33.943Z,5.76
2023-02-20T01:40:05.413Z,3.95
2023-02-20T01:40:36.168Z,5.03
2023-02-20T01:41:06.937Z,8.99
2023-02-20T01:41:38.016Z,5.76
2023-02-20T01:42:09.250Z,3.95
2023-02-20T01:42:40.031Z,6.83
2023-02-20T01:43:11.282Z,5.03
2023-02-20T01:43:42.213Z,8.27
2023-02-20T01:44:13.258Z,8.27
2023-02-20T01:44:44.434Z,11.87
2023-02-20T01:45:16.473Z,9.72
2023-02-20T01:45:46.065Z,9.36
2023-02-20T01:46:16.965Z,4.68
2023-02-20T01:46:47.942Z,3.95
2023-02-20T01:47:19.046Z,8.64
2023-02-20T01:47:50.283Z,7.91
2023-02-20T01:48:21.413Z,8.64
2023-02-20T01:48:52.160Z,6.48
2023-02-20T01:49:22.999Z,10.79
2023-02-20T01:49:54.351Z,12.24
2023-02-20T01:50:25.824Z,8.99
2023-02-20T01:50:56.157Z,7.19
2023-02-20T01:51:27.023Z,7.19
2023-02-20T01:51:58.149Z,8.64
2023-02-20T01:52:29.243Z,7.19
2023-02-20T01:53:00.039Z,7.19
2023-02-20T01:53:31.327Z,5.40
2023-02-20T01:54:02.215Z,6.11
2023-02-20T01:54:33.292Z,6.11
2023-02-20T01:55:04.350Z,7.19
2023-02-20T01:55:35.370Z,7.19
2023-02-20T01:56:06.440Z,8.27
2023-02-20T01:56:37.040Z,6.83
2023-02-20T01:57:08.325Z,6.48
2023-02-20T01:57:39.092Z,7.56
2023-02-20T01:58:10.414Z,7.91
2023-02-20T01:58:41.331Z,6.83
2023-02-20T01:59:12.532Z,5.03
2023-02-20T01:59:43.030Z,7.91
2023-02-20T02:00:15.636Z,6.48
2023-02-20T02:00:45.434Z,7.19
2023-02-20T02:01:16.061Z,7.91
2023-02-20T02:01:47.652Z,8.64
2023-02-20T02:02:18.237Z,7.19
2023-02-20T02:02:49.252Z,3.95
2023-02-20T02:03:20.953Z,6.48
2023-02-20T02:03:51.381Z,8.64
2023-02-20T02:04:22.436Z,9.36
2023-02-20T02:04:53.410Z,8.64
2023-02-20T02:05:25.045Z,6.83
2023-02-20T02:05:56.513Z,8.64
2023-02-20T02:06:26.445Z,9.36
2023-02-20T02:06:57.666Z,6.83
2023-02-20T02:07:28.380Z,5.76
2023-02-20T02:07:59.076Z,8.27
2023-02-20T02:08:30.292Z,5.76
2023-02-20T02:09:07.584Z,9.36
2023-02-20T02:09:32.091Z,6.48
2023-02-20T02:10:03.842Z,7.19
2023-02-20T02:10:34.433Z,9.72
2023-02-20T02:11:05.047Z,10.07
2023-02-20T02:11:36.415Z,6.11
2023-02-20T02:12:07.080Z,5.76
2023-02-20T02:12:38.340Z,8.27
2023-02-20T02:13:09.514Z,5.76
2023-02-20T02:13:40.619Z,6.83
2023-02-20T02:14:11.499Z,11.52
2023-02-20T02:14:42.739Z,9.36
2023-02-20T02:15:14.533Z,6.83
2023-02-20T02:15:44.129Z,7.19
2023-02-20T02:16:15.618Z,9.72
2023-02-20T02:16:47.022Z,8.99
2023-02-20T02:17:17.652Z,7.19
2023-02-20T02:17:48.567Z,6.11
2023-02-20T02:18:19.557Z,6.48
2023-02-20T02:18:50.480Z,4.31
2023-02-20T02:19:21.087Z,11.15
2023-02-20T02:19:52.128Z,9.72
2023-02-20T02:20:24.252Z,10.44
2023-02-20T02:20:54.094Z,5.76
2023-02-20T02:21:25.175Z,8.27
2023-02-20T02:21:56.098Z,9.72
2023-02-20T02:22:27.733Z,9.72
2023-02-20T02:22:58.113Z,9.72
2023-02-20T02:23:29.248Z,9.72
2023-02-20T02:24:00.509Z,8.64
2023-02-20T02:24:31.132Z,8.99
2023-02-20T02:25:02.775Z,10.44
2023-02-20T02:25:33.543Z,11.87
2023-02-20T02:26:04.076Z,14.75
2023-02-20T02:26:35.753Z,9.72
2023-02-20T02:27:06.516Z,7.91
2023-02-20T02:27:37.186Z,10.44
2023-02-20T02:28:08.315Z,7.19
2023-02-20T02:28:39.428Z,7.91
2023-02-20T02:29:10.161Z,7.19
2023-02-20T02:29:41.087Z,9.72
2023-02-20T02:30:13.792Z,7.91
2023-02-20T02:30:43.626Z,11.87
2023-02-20T02:31:14.608Z,12.24
2023-02-20T02:31:45.517Z,9.72
2023-02-20T02:32:16.491Z,9.36
2023-02-20T02:32:47.083Z,13.67
2023-02-20T02:33:18.530Z,12.60
2023-02-20T02:33:49.531Z,10.44
2023-02-20T02:34:20.444Z,11.15
2023-02-20T02:34:51.201Z,9.36
2023-02-20T02:35:23.014Z,16.20
2023-02-20T02:35:53.045Z,11.52
2023-02-20T02:36:24.584Z,14.40
2023-02-20T02:36:56.084Z,11.87
2023-02-20T02:37:29.055Z,6.83
2023-02-20T02:37:57.584Z,7.91
2023-02-20T02:38:30.492Z,8.64
2023-02-20T02:38:59.511Z,7.56
2023-02-20T02:39:31.791Z,11.87
2023-02-20T02:40:01.816Z,8.64
2023-02-20T02:40:32.959Z,7.91
2023-02-20T02:41:03.250Z,8.64
2023-02-20T02:41:34.401Z,8.99
2023-02-20T02:42:05.105Z,10.44
2023-02-20T02:42:36.306Z,5.40
2023-02-20T02:43:07.782Z,10.79
2023-02-20T02:43:38.504Z,9.36
2023-02-20T02:44:09.512Z,9.72
2023-02-20T02:44:40.551Z,14.40
2023-02-20T02:45:12.394Z,7.19
2023-02-20T02:45:42.517Z,7.19
2023-02-20T02:46:13.473Z,5.40
2023-02-20T02:46:44.594Z,11.52
2023-02-20T02:47:15.152Z,11.52
2023-02-20T02:47:46.604Z,7.91
2023-02-20T02:48:17.780Z,6.11
2023-02-20T02:48:48.399Z,14.03
2023-02-20T02:49:19.201Z,10.44
2023-02-20T02:49:50.205Z,9.36
2023-02-20T02:50:21.885Z,6.11
2023-02-20T02:50:52.533Z,7.91
2023-02-20T02:51:23.586Z,7.56
2023-02-20T02:51:54.481Z,9.36
2023-02-20T02:52:25.538Z,7.19
2023-02-20T02:52:56.793Z,8.27
2023-02-20T02:53:27.574Z,12.95
2023-02-20T02:53:58.562Z,12.95
2023-02-20T02:54:29.543Z,10.44
2023-02-20T02:55:00.780Z,8.27
2023-02-20T02:55:31.432Z,7.19
2023-02-20T02:56:02.305Z,8.64
2023-02-20T02:56:33.632Z,7.19
2023-02-20T02:57:04.208Z,6.11
2023-02-20T02:57:35.384Z,5.40
2023-02-20T02:58:06.458Z,7.19
2023-02-20T02:58:37.214Z,11.87
2023-02-20T02:59:08.373Z,9.72
2023-02-20T02:59:39.565Z,8.64
2023-02-20T03:00:11.723Z,15.48
2023-02-20T03:00:41.761Z,7.56
2023-02-20T03:01:12.766Z,11.87
2023-02-20T03:01:43.554Z,10.44
2023-02-20T03:02:14.541Z,17.63
2023-02-20T03:02:45.606Z,8.27
2023-02-20T03:03:16.606Z,11.15
2023-02-20T03:03:47.270Z,11.15
2023-02-20T03:04:18.567Z,9.36
2023-02-20T03:04:49.250Z,6.48
2023-02-20T03:05:21.209Z,8.99
2023-02-20T03:05:51.685Z,11.15
2023-02-20T03:06:22.665Z,12.24
2023-02-20T03:06:53.676Z,15.48
2023-02-20T03:07:24.609Z,14.40
2023-02-20T03:07:55.758Z,14.75
2023-02-20T03:08:26.569Z,8.27
2023-02-20T03:08:59.747Z,11.15
2023-02-20T03:09:28.274Z,15.48
2023-02-20T03:10:01.842Z,15.83
2023-02-20T03:10:30.245Z,12.24
2023-02-20T03:11:01.564Z,13.67
2023-02-20T03:11:32.295Z,12.95
2023-02-20T03:12:03.288Z,12.60
2023-02-20T03:12:34.455Z,12.24
2023-02-20T03:13:05.272Z,9.36
2023-02-20T03:13:36.705Z,14.40
2023-02-20T03:14:07.366Z,12.95
2023-02-20T03:14:38.513Z,15.11
2023-02-20T03:15:10.325Z,13.67
2023-02-20T03:15:40.646Z,13.67
2023-02-20T03:16:11.845Z,10.44
2023-02-20T03:16:42.612Z,13.67
2023-02-20T03:17:13.627Z,12.95
2023-02-20T03:17:44.653Z,12.24
2023-02-20T03:18:15.667Z,8.27
2023-02-20T03:18:46.695Z,12.24
2023-02-20T03:19:17.643Z,10.44
2023-02-20T03:19:48.428Z,8.64
2023-02-20T03:20:20.428Z,7.91
2023-02-20T03:20:50.774Z,8.64
2023-02-20T03:21:21.405Z,8.99
2023-02-20T03:21:52.533Z,10.44
2023-02-20T03:22:23.333Z,9.36
2023-02-20T03:22:54.296Z,10.44
2023-02-20T03:23:25.528Z,11.15
2023-02-20T03:23:56.519Z,13.67
2023-02-20T03:24:27.728Z,11.15
2023-02-20T03:24:58.243Z,15.11
2023-02-20T03:25:30.137Z,8.64
2023-02-20T03:26:00.670Z,9.72
2023-02-20T03:26:31.697Z,8.64
2023-02-20T03:27:02.333Z,10.44
2023-02-20T03:27:33.286Z,9.72
2023-02-20T03:28:04.395Z,10.44
2023-02-20T03:28:35.328Z,5.76
2023-02-20T03:29:06.273Z,8.27
2023-02-20T03:29:37.680Z,5.40
2023-02-20T03:30:09.568Z,6.83
2023-02-20T03:30:39.585Z,8.99
2023-02-20T03:31:10.367Z,11.15
2023-02-20T03:31:41.470Z,9.72
2023-02-20T03:32:12.907Z,10.44
2023-02-20T03:32:43.718Z,10.79
2023-02-20T03:33:14.282Z,16.20
2023-02-20T03:33:45.914Z,12.95
2023-02-20T03:34:16.334Z,11.15
2023-02-20T03:34:47.769Z,11.15
2023-02-20T03:35:19.720Z,7.91
2023-02-20T03:35:49.329Z,10.44
2023-02-20T03:36:20.552Z,8.27
2023-02-20T03:36:51.313Z,12.95
2023-02-20T03:37:22.269Z,7.19
2023-02-20T03:37:53.451Z,8.64
2023-02-20T03:38:24.482Z,7.91
2023-02-20T03:38:55.451Z,8.64
2023-02-20T03:39:26.573Z,9.36
2023-02-20T03:39:57.753Z,9.72
2023-02-20T03:40:31.903Z,7.91
2023-02-20T03:40:59.739Z,6.83
2023-02-20T03:41:31.901Z,13.32
2023-02-20T03:42:01.620Z,13.67
2023-02-20T03:42:32.732Z,11.15
2023-02-20T03:43:03.354Z,9.72
2023-02-20T03:43:34.501Z,11.15
2023-02-20T03:44:05.588Z,9.36
2023-02-20T03:44:37.048Z,6.11
2023-02-20T03:45:08.769Z,9.36
2023-02-20T03:45:38.403Z,5.76
2023-02-20T03:46:09.386Z,13.32
2023-02-20T03:46:40.722Z,8.99
2023-02-20T03:47:11.433Z,10.07
2023-02-20T03:47:42.941Z,7.19
2023-02-20T03:48:13.812Z,5.40
2023-02-20T03:48:44.798Z,6.11
2023-02-20T03:49:15.556Z,8.99
2023-02-20T03:49:46.336Z,8.64
2023-02-20T03:50:18.241Z,8.27
2023-02-20T03:50:48.763Z,6.83
2023-02-20T03:51:19.617Z,6.48
2023-02-20T03:51:50.793Z,7.19
2023-02-20T03:52:21.811Z,6.11
2023-02-20T03:52:52.410Z,8.27
2023-02-20T03:53:23.453Z,5.40
2023-02-20T03:53:54.572Z,5.03
2023-02-20T03:54:26.001Z,3.60
2023-02-20T03:54:56.781Z,5.03
2023-02-20T03:55:28.254Z,6.11
2023-02-20T03:55:59.081Z,6.11
2023-02-20T03:56:29.765Z,7.19
2023-02-20T03:57:00.842Z,4.68
2023-02-20T03:57:31.382Z,5.03
2023-02-20T03:58:02.764Z,6.83
2023-02-20T03:58:33.952Z,3.60
2023-02-20T03:59:04.370Z,4.68
2023-02-20T03:59:35.555Z,7.19
2023-02-20T04:00:07.682Z,5.40
2023-02-20T04:00:37.890Z,5.76
2023-02-20T04:01:08.802Z,5.40
2023-02-20T04:01:40.046Z,4.31
2023-02-20T04:02:10.834Z,7.19
2023-02-20T04:02:41.804Z,8.27
2023-02-20T04:03:12.685Z,5.40
2023-02-20T04:03:43.805Z,9.72
2023-02-20T04:04:14.773Z,6.48
2023-02-20T04:04:46.146Z,8.64
2023-02-20T04:05:17.022Z,9.72
2023-02-20T04:05:47.880Z,14.03
2023-02-20T04:06:18.572Z,8.99
2023-02-20T04:06:49.809Z,6.48
2023-02-20T04:07:20.815Z,6.48
2023-02-20T04:07:52.041Z,5.76
2023-02-20T04:08:22.762Z,8.27
2023-02-20T04:08:53.850Z,8.27
2023-02-20T04:09:24.970Z,9.72
2023-02-20T04:09:56.072Z,9.36
2023-02-20T04:10:27.008Z,10.44
2023-02-20T04:10:57.826Z,14.03
2023-02-20T04:11:28.859Z,7.56
2023-02-20T04:12:01.809Z,6.83
2023-02-20T04:12:30.451Z,7.19
2023-02-20T04:13:03.877Z,6.48
2023-02-20T04:13:32.798Z,4.31
2023-02-20T04:14:04.968Z,6.11
2023-02-20T04:14:34.702Z,12.24
2023-02-20T04:15:06.568Z,5.40
2023-02-20T04:15:36.491Z,7.19
2023-02-20T04:16:07.680Z,7.19
2023-02-20T04:16:38.699Z,7.91
2023-02-20T04:17:09.489Z,9.36
2023-02-20T04:17:40.872Z,5.76
2023-02-20T04:18:11.576Z,6.11
2023-02-20T04:18:42.672Z,5.76
2023-02-20T04:19:13.490Z,4.68
2023-02-20T04:19:45.138Z,5.76
2023-02-20T04:20:16.200Z,7.91
2023-02-20T04:20:46.570Z,7.19
2023-02-20T04:21:17.576Z,8.64
2023-02-20T04:21:48.596Z,7.19
2023-02-20T04:22:19.617Z,6.48
2023-02-20T04:22:50.799Z,4.68
2023-02-20T04:23:21.892Z,6.83
2023-02-20T04:23:52.721Z,7.56
2023-02-20T04:24:23.819Z,7.91
2023-02-20T04:24:55.061Z,8.64
2023-02-20T04:25:26.464Z,5.40
2023-02-20T04:25:56.800Z,5.40
2023-02-20T04:26:28.071Z,3.95
2023-02-20T04:26:58.895Z,8.99
2023-02-20T04:27:29.754Z,6.83
2023-02-20T04:28:00.872Z,5.03
2023-02-20T04:28:31.919Z,3.95
2023-02-20T04:29:02.737Z,7.19
2023-02-20T04:29:33.496Z,5.40
2023-02-20T04:30:05.492Z,6.83
2023-02-20T04:30:35.728Z,6.11
2023-02-20T04:31:06.952Z,5.76
2023-02-20T04:31:38.222Z,6.11
2023-02-20T04:32:08.710Z,3.95
2023-02-20T04:32:39.661Z,6.83
2023-02-20T04:33:10.902Z,4.68
2023-02-20T04:33:41.725Z,6.48
2023-02-20T04:34:13.070Z,6.11
2023-02-20T04:34:44.298Z,6.83
2023-02-20T04:35:15.651Z,4.68
2023-02-20T04:35:45.982Z,6.11
2023-02-20T04:36:16.491Z,4.31
2023-02-20T04:36:47.532Z,7.91
2023-02-20T04:37:18.814Z,5.03
2023-02-20T04:37:49.928Z,6.11
2023-02-20T04:38:20.568Z,5.40
2023-02-20T04:38:51.455Z,5.40
2023-02-20T04:39:22.553Z,6.11
2023-02-20T04:39:53.653Z,5.40
2023-02-20T04:40:25.249Z,4.68
2023-02-20T04:40:55.532Z,3.95
2023-02-20T04:41:26.948Z,4.68
2023-02-20T04:41:57.929Z,6.11
2023-02-20T04:42:28.544Z,8.27
2023-02-20T04:42:59.858Z,4.68
2023-02-20T04:43:33.158Z,3.95
2023-02-20T04:44:01.522Z,2.88
2023-02-20T04:44:34.642Z,3.60
2023-02-20T04:45:04.604Z,2.15
2023-02-20T04:45:35.812Z,1.43
2023-02-20T04:46:05.972Z,1.43
2023-02-20T04:46:36.853Z,3.23
2023-02-20T04:47:07.895Z,3.60
2023-02-20T04:47:38.543Z,2.15
2023-02-20T04:48:09.724Z,2.15
2023-02-20T04:48:40.984Z,1.80
2023-02-20T04:49:11.803Z,4.31
2023-02-20T04:49:42.853Z,4.31
2023-02-20T04:50:14.415Z,2.15
2023-02-20T04:50:44.914Z,2.88
2023-02-20T04:51:15.791Z,6.48
2023-02-20T04:51:47.026Z,5.40
2023-02-20T04:52:17.838Z,2.88
2023-02-20T04:52:48.947Z,3.60
2023-02-20T04:53:19.831Z,3.60
2023-02-20T04:53:51.237Z,1.43
2023-02-20T04:54:21.879Z,3.60
2023-02-20T04:54:53.005Z,3.95
2023-02-20T04:55:24.303Z,4.68
2023-02-20T04:55:54.592Z,3.60
2023-02-20T04:56:25.731Z,3.60
2023-02-20T04:56:56.841Z,3.23
2023-02-20T04:57:27.535Z,2.15
2023-02-20T04:57:58.960Z,6.48
2023-02-20T04:58:29.604Z,2.15
2023-02-20T04:59:01.243Z,3.95
2023-02-20T04:59:31.804Z,6.11
2023-02-20T05:00:03.961Z,2.88
2023-02-20T05:00:34.051Z,3.60
2023-02-20T05:01:05.036Z,3.60
2023-02-20T05:01:36.075Z,5.40
2023-02-20T05:02:09.092Z,7.19
2023-02-20T05:02:37.653Z,2.88
2023-02-20T05:03:09.001Z,4.68
2023-02-20T05:03:39.943Z,4.68
2023-02-20T05:04:10.905Z,6.11
2023-02-20T05:04:41.721Z,7.56
2023-02-20T05:05:13.630Z,5.40
2023-02-20T05:05:43.804Z,4.68
2023-02-20T05:06:14.956Z,3.60
2023-02-20T05:06:45.733Z,5.03
2023-02-20T05:07:16.867Z,4.31
2023-02-20T05:07:47.817Z,3.60
2023-02-20T05:08:18.775Z,3.95
2023-02-20T05:08:50.308Z,5.03
2023-02-20T05:09:21.163Z,3.95
2023-02-20T05:09:52.209Z,2.88
2023-02-20T05:10:23.293Z,3.95
2023-02-20T05:10:53.724Z,3.95
2023-02-20T05:11:24.763Z,3.23
2023-02-20T05:11:55.663Z,2.88
2023-02-20T05:12:26.844Z,3.95
2023-02-20T05:12:57.574Z,5.40
2023-02-20T05:13:28.676Z,4.68
2023-02-20T05:13:59.693Z,3.23
2023-02-20T05:14:31.423Z,2.88
2023-02-20T05:15:03.753Z,2.52
2023-02-20T05:15:32.984Z,2.88
2023-02-20T05:16:05.916Z,4.68
2023-02-20T05:16:35.014Z,3.95
2023-02-20T05:17:06.363Z,3.95
2023-02-20T05:17:36.706Z,6.83
2023-02-20T05:18:08.253Z,1.07
2023-02-20T05:18:39.105Z,5.76
2023-02-20T05:19:10.067Z,3.95
2023-02-20T05:19:40.847Z,4.68
2023-02-20T05:20:12.723Z,5.03
2023-02-20T05:20:43.080Z,2.88
2023-02-20T05:21:14.097Z,4.68
2023-02-20T05:21:45.388Z,2.52
2023-02-20T05:22:15.783Z,2.52
2023-02-20T05:22:46.692Z,.72
2023-02-20T05:23:17.712Z,1.43
2023-02-20T05:23:48.740Z,5.40
2023-02-20T05:24:19.853Z,6.48
2023-02-20T05:24:50.844Z,3.60
2023-02-20T05:25:22.368Z,3.23
2023-02-20T05:25:53.235Z,2.88
2023-02-20T05:26:23.907Z,2.15
2023-02-20T05:26:55.055Z,3.95
2023-02-20T05:27:26.098Z,3.60
2023-02-20T05:27:57.169Z,2.88
2023-02-20T05:28:28.073Z,2.15
2023-02-20T05:28:59.081Z,1.43
2023-02-20T05:29:30.093Z,2.15
2023-02-20T05:30:01.774Z,3.60
2023-02-20T05:30:31.886Z,3.23
2023-02-20T05:31:02.740Z,2.88
2023-02-20T05:31:34.150Z,4.68
2023-02-20T05:32:04.769Z,3.95
2023-02-20T05:32:35.710Z,4.31
2023-02-20T05:33:06.964Z,3.95
2023-02-20T05:33:37.867Z,4.31
2023-02-20T05:34:08.746Z,4.31
2023-02-20T05:34:40.024Z,2.88
2023-02-20T05:35:11.650Z,3.60
2023-02-20T05:35:41.748Z,3.23
2023-02-20T05:36:13.454Z,3.60
2023-02-20T05:36:44.121Z,3.60
2023-02-20T05:37:14.762Z,3.95
2023-02-20T05:37:46.608Z,3.60
2023-02-20T05:38:17.286Z,1.80
2023-02-20T05:38:48.081Z,4.68
2023-02-20T05:39:19.086Z,2.15
2023-02-20T05:39:50.108Z,3.23
2023-02-20T05:40:21.554Z,2.15
2023-02-20T05:40:52.117Z,2.88
2023-02-20T05:41:22.787Z,3.60
2023-02-20T05:41:54.278Z,3.60
2023-02-20T05:42:25.093Z,3.60
2023-02-20T05:42:56.175Z,2.15
2023-02-20T05:43:27.055Z,2.15
2023-02-20T05:43:58.741Z,2.88
2023-02-20T05:44:28.893Z,2.15
2023-02-20T05:44:59.826Z,2.15
2023-02-20T05:45:33.753Z,.35
2023-02-20T05:46:02.005Z,1.07
2023-02-20T05:46:35.272Z,2.88
2023-02-20T05:47:03.773Z,1.43
2023-02-20T05:47:36.787Z,2.15
2023-02-20T05:48:05.844Z,1.07
2023-02-20T05:48:38.354Z,0
2023-02-20T05:49:07.825Z,0
2023-02-20T05:49:38.897Z,0
2023-02-20T05:50:10.517Z,0
2023-02-20T05:50:41.036Z,0
2023-02-20T05:51:12.033Z,0
2023-02-20T05:51:43.140Z,0
2023-02-20T05:52:14.064Z,0
2023-02-20T05:52:45.128Z,0
2023-02-20T05:53:16.536Z,0
2023-02-20T05:53:47.409Z,4.31
2023-02-20T05:54:17.952Z,1.07
2023-02-20T05:54:49.234Z,3.60
2023-02-20T05:55:20.712Z,.72
2023-02-20T05:55:50.825Z,0
2023-02-20T05:56:21.986Z,0
2023-02-20T05:56:53.068Z,2.15
2023-02-20T05:57:23.762Z,1.80
2023-02-20T05:57:54.918Z,.35
2023-02-20T05:58:26.151Z,.72
2023-02-20T05:58:56.765Z,0
2023-02-20T05:59:28.193Z,.72
2023-02-20T05:59:59.115Z,2.88
2023-02-20T06:00:31.251Z,0
2023-02-20T06:01:01.085Z,0
2023-02-20T06:01:31.739Z,0
2023-02-20T06:02:03.189Z,2.88
2023-02-20T06:02:33.804Z,1.07
2023-02-20T06:03:04.969Z,2.88
2023-02-20T06:03:38.156Z,3.60
2023-02-20T06:04:07.237Z,0
2023-02-20T06:04:38.183Z,1.07
2023-02-20T06:05:09.510Z,0
2023-02-20T06:05:40.225Z,0
2023-02-20T06:06:11.529Z,1.80
2023-02-20T06:06:42.147Z,0
2023-02-20T06:07:13.195Z,5.40
2023-02-20T06:07:44.404Z,2.88
2023-02-20T06:08:15.187Z,1.80
2023-02-20T06:08:46.470Z,2.88
2023-02-20T06:09:17.090Z,0
2023-02-20T06:09:48.030Z,0
2023-02-20T06:10:19.404Z,5.40
2023-02-20T06:10:49.905Z,2.52
2023-02-20T06:11:20.989Z,3.23
2023-02-20T06:11:52.090Z,7.19
2023-02-20T06:12:22.850Z,.35
2023-02-20T06:12:54.427Z,4.31
2023-02-20T06:13:25.251Z,2.88
2023-02-20T06:13:55.848Z,6.11
2023-02-20T06:14:27.330Z,5.40
2023-02-20T06:14:58.265Z,3.60
2023-02-20T06:15:29.833Z,.35
2023-02-20T06:16:00.317Z,3.95
2023-02-20T06:16:31.378Z,2.52
2023-02-20T06:17:02.376Z,.72
2023-02-20T06:17:33.403Z,0
2023-02-20T06:18:06.665Z,1.43
2023-02-20T06:18:35.886Z,0
2023-02-20T06:19:08.558Z,1.43
2023-02-20T06:19:37.357Z,2.52
2023-02-20T06:20:08.207Z,1.80
2023-02-20T06:20:39.185Z,2.52
2023-02-20T06:21:10.719Z,1.07
2023-02-20T06:21:40.926Z,1.43
2023-02-20T06:22:12.064Z,3.23
2023-02-20T06:22:43.388Z,3.95
2023-02-20T06:23:14.507Z,3.60
2023-02-20T06:23:45.369Z,1.43
2023-02-20T06:24:16.353Z,0
2023-02-20T06:24:47.268Z,0
2023-02-20T06:25:18.601Z,3.23
2023-02-20T06:25:49.355Z,1.80
2023-02-20T06:26:19.978Z,2.88
2023-02-20T06:26:51.014Z,3.60
2023-02-20T06:27:22.265Z,2.15
2023-02-20T06:27:53.190Z,2.15
2023-02-20T06:28:24.396Z,1.43
2023-02-20T06:28:55.148Z,1.43
2023-02-20T06:29:26.154Z,4.31
2023-02-20T06:29:57.407Z,2.88
2023-02-20T06:30:30.013Z,2.88
2023-02-20T06:31:01.741Z,1.43
2023-02-20T06:31:30.501Z,3.60
2023-02-20T06:32:01.129Z,2.52
2023-02-20T06:32:32.206Z,1.80
2023-02-20T06:33:03.177Z,1.07
2023-02-20T06:33:34.212Z,4.31
2023-02-20T06:34:04.992Z,2.88
2023-02-20T06:34:36.669Z,2.15
2023-02-20T06:35:07.639Z,.35
2023-02-20T06:35:38.350Z,0
2023-02-20T06:36:09.422Z,2.15
2023-02-20T06:36:40.374Z,2.15
2023-02-20T06:37:11.060Z,3.95
2023-02-20T06:37:42.873Z,1.07
2023-02-20T06:38:13.278Z,.72
2023-02-20T06:38:44.391Z,.35
2023-02-20T06:39:15.303Z,3.23
2023-02-20T06:39:48.480Z,2.15
2023-02-20T06:40:17.820Z,2.15
2023-02-20T06:40:48.551Z,0
2023-02-20T06:41:19.484Z,0
2023-02-20T06:41:50.420Z,0
2023-02-20T06:42:21.681Z,0
2023-02-20T06:42:52.248Z,0
2023-02-20T06:43:23.408Z,0
2023-02-20T06:43:54.488Z,0
2023-02-20T06:44:25.344Z,0
2023-02-20T06:44:56.460Z,0
2023-02-20T06:45:29.113Z,0
2023-02-20T06:45:59.019Z,0
2023-02-20T06:46:29.034Z,0
2023-02-20T06:47:00.459Z,0
2023-02-20T06:47:31.341Z,0
2023-02-20T06:48:02.888Z,0
2023-02-20T06:48:33.454Z,0
2023-02-20T06:49:04.121Z,0
2023-02-20T06:49:37.392Z,0
2023-02-20T06:50:07.095Z,0
2023-02-20T06:50:39.600Z,0
2023-02-20T06:51:08.445Z,0
2023-02-20T06:51:40.129Z,3.95
2023-02-20T06:52:10.514Z,2.15
2023-02-20T06:52:41.660Z,0
2023-02-20T06:53:13.032Z,0
2023-02-20T06:53:43.462Z,0